Time;durP1;ratioP1;P1;durP2;ratioP2;P2;SDS_P1;SDS_P2;PMS_P1;PMS_P2;Temp;Humidity;BMP_temperature;BMP_pressure;BME280_temperature;BME280_humidity;BME280_pressure;Samples;Min_cycle;Max_cycle;Signal;HPM_P1;HPM_P2
2023/12/30 00:02:04;;;;;;;5.20;0.50;;;7.80;99.90;;;;;;5060484;28;20445;-81
2023/12/30 00:04:30;;;;;;;0.57;0.57;;;7.80;99.90;;;;;;5059714;28;20442;-81
2023/12/30 00:06:57;;;;;;;0.90;0.50;;;7.80;99.90;;;;;;5061114;28;20449;-81
2023/12/30 00:09:24;;;;;;;0.90;0.90;;;7.90;99.90;;;;;;5060461;28;20500;-81
2023/12/30 00:11:51;;;;;;;0.50;0.50;;;7.90;99.90;;;;;;5059846;28;20783;-81
2023/12/30 00:14:19;;;;;;;1.67;0.80;;;8.00;99.90;;;;;;5058967;28;20454;-81
2023/12/30 00:16:45;;;;;;;1.10;0.60;;;8.00;99.90;;;;;;5058928;28;20448;-81
2023/12/30 00:19:12;;;;;;;0.80;0.80;;;8.00;99.90;;;;;;5059622;28;20458;-80
2023/12/30 00:21:39;;;;;;;0.90;0.60;;;8.00;99.90;;;;;;5057602;28;20452;-81
2023/12/30 00:24:06;;;;;;;1.27;0.50;;;8.00;99.90;;;;;;5057900;28;20444;-80
2023/12/30 00:26:33;;;;;;;2.23;0.50;;;8.00;99.90;;;;;;5057613;28;20438;-80
2023/12/30 00:29:00;;;;;;;0.50;0.40;;;8.00;99.90;;;;;;5056570;28;20482;-81
2023/12/30 00:31:29;;;;;;;0.73;0.50;;;8.10;99.90;;;;;;5057095;28;20449;-80
2023/12/30 00:33:57;;;;;;;0.50;0.50;;;8.10;99.90;;;;;;5056226;28;20446;-81
2023/12/30 00:36:24;;;;;;;0.70;0.60;;;8.10;99.90;;;;;;5055991;28;20450;-81
2023/12/30 00:38:53;;;;;;;1.53;0.53;;;8.10;99.90;;;;;;5055066;28;20465;-81
2023/12/30 00:41:19;;;;;;;1.57;0.53;;;8.10;99.90;;;;;;5054842;28;20445;-81
2023/12/30 00:43:46;;;;;;;0.50;0.50;;;8.20;99.90;;;;;;5054814;28;20445;-81
2023/12/30 00:46:13;;;;;;;0.50;0.50;;;8.20;99.90;;;;;;5054854;28;20438;-81
2023/12/30 00:48:41;;;;;;;1.77;0.60;;;8.20;99.90;;;;;;5054510;28;20850;-81
2023/12/30 00:51:08;;;;;;;1.43;0.50;;;8.30;99.90;;;;;;5054920;28;20449;-81
2023/12/30 00:53:34;;;;;;;3.07;0.53;;;8.30;99.90;;;;;;5054816;28;20449;-81
2023/12/30 00:56:01;;;;;;;1.27;0.60;;;8.30;99.90;;;;;;5055748;28;20449;-81
2023/12/30 00:58:28;;;;;;;0.70;0.53;;;8.30;99.90;;;;;;5062875;28;20477;-81
2023/12/30 01:00:55;;;;;;;2.67;0.77;;;8.30;99.90;;;;;;5054628;28;20461;-81
2023/12/30 01:03:21;;;;;;;0.53;0.53;;;8.30;99.90;;;;;;5054580;28;20450;-81
2023/12/30 01:05:49;;;;;;;0.97;0.67;;;8.20;99.90;;;;;;5054366;28;20446;-81
2023/12/30 01:08:16;;;;;;;1.20;0.73;;;8.30;99.90;;;;;;5053873;28;20525;-81
2023/12/30 01:10:43;;;;;;;0.70;0.53;;;8.30;99.90;;;;;;5054457;28;20446;-81
2023/12/30 01:13:10;;;;;;;2.43;0.70;;;8.30;99.90;;;;;;5053552;28;20943;-81
2023/12/30 01:15:37;;;;;;;0.53;0.53;;;8.30;99.90;;;;;;5054438;28;20449;-81
2023/12/30 01:18:04;;;;;;;0.47;0.40;;;8.30;99.90;;;;;;5053969;28;20515;-82
2023/12/30 01:20:31;;;;;;;0.60;0.50;;;8.30;99.90;;;;;;5054252;28;20453;-81
2023/12/30 01:23:00;;;;;;;0.50;0.50;;;8.40;99.90;;;;;;5053885;28;20437;-82
2023/12/30 01:25:27;;;;;;;0.57;0.57;;;8.50;99.90;;;;;;5054237;28;20446;-81
2023/12/30 01:27:53;;;;;;;1.33;0.63;;;8.50;99.90;;;;;;5054045;28;20465;-81
2023/12/30 01:30:20;;;;;;;0.80;0.60;;;8.40;99.90;;;;;;5053701;28;20489;-82
2023/12/30 01:32:47;;;;;;;0.60;0.60;;;8.50;99.90;;;;;;5057176;28;20442;-80
2023/12/30 01:35:14;;;;;;;0.93;0.60;;;8.50;99.90;;;;;;5076844;28;20441;-81
2023/12/30 01:37:41;;;;;;;0.70;0.60;;;8.50;99.90;;;;;;5076493;28;20497;-82
2023/12/30 01:40:10;;;;;;;1.17;0.70;;;8.50;99.90;;;;;;5061066;28;20434;-80
2023/12/30 01:42:39;;;;;;;0.60;0.57;;;8.50;99.90;;;;;;5059590;28;20473;-80
2023/12/30 01:45:07;;;;;;;1.83;0.70;;;8.50;99.90;;;;;;5058282;28;20448;-80
2023/12/30 01:47:35;;;;;;;0.77;0.60;;;8.50;99.90;;;;;;5058051;28;20462;-80
2023/12/30 01:50:02;;;;;;;0.60;0.60;;;8.50;99.90;;;;;;5058037;28;20481;-80
2023/12/30 01:52:29;;;;;;;0.57;0.50;;;8.60;99.90;;;;;;5056561;28;20445;-81
2023/12/30 01:54:56;;;;;;;0.90;0.70;;;8.50;99.90;;;;;;5057312;28;20445;-80
2023/12/30 01:57:24;;;;;;;0.53;0.50;;;8.50;99.90;;;;;;5056915;28;20469;-80
2023/12/30 01:59:52;;;;;;;0.60;0.60;;;8.50;99.90;;;;;;5056297;28;20841;-81
2023/12/30 02:02:19;;;;;;;1.33;0.70;;;8.40;99.90;;;;;;5055608;28;20790;-81
2023/12/30 02:04:46;;;;;;;0.50;0.50;;;8.40;99.90;;;;;;5055392;28;20449;-81
2023/12/30 02:07:13;;;;;;;0.93;0.60;;;8.40;99.90;;;;;;5053736;28;20841;-81
2023/12/30 02:09:39;;;;;;;0.93;0.83;;;8.20;99.90;;;;;;5053056;28;20998;-82
2023/12/30 02:12:07;;;;;;;0.80;0.80;;;8.20;99.90;;;;;;5053990;28;20437;-81
2023/12/30 02:14:35;;;;;;;0.83;0.50;;;8.10;99.90;;;;;;5053988;28;20446;-81
2023/12/30 02:17:02;;;;;;;0.73;0.70;;;7.90;99.90;;;;;;5053700;28;20441;-82
2023/12/30 02:19:28;;;;;;;0.70;0.60;;;7.70;99.90;;;;;;5053183;28;20442;-81
2023/12/30 02:21:55;;;;;;;1.17;1.07;;;7.70;99.90;;;;;;5053510;28;20453;-81
2023/12/30 02:24:23;;;;;;;0.93;0.50;;;7.60;99.90;;;;;;5054173;28;20445;-81
2023/12/30 02:26:50;;;;;;;0.70;0.53;;;7.50;99.90;;;;;;5057361;28;20529;-82
2023/12/30 02:29:17;;;;;;;1.67;0.70;;;7.50;99.90;;;;;;5057213;28;20476;-82
2023/12/30 02:31:47;;;;;;;0.83;0.70;;;7.50;99.90;;;;;;5057372;28;20445;-82
2023/12/30 02:34:14;;;;;;;0.70;0.70;;;7.50;99.90;;;;;;5057230;28;20453;-81
2023/12/30 02:36:41;;;;;;;0.60;0.60;;;7.50;99.90;;;;;;5057208;28;20786;-81
2023/12/30 02:39:07;;;;;;;2.73;0.60;;;7.50;99.90;;;;;;5057188;28;20472;-81
2023/12/30 02:41:35;;;;;;;0.80;0.60;;;7.50;99.90;;;;;;5057324;28;20438;-82
2023/12/30 02:44:03;;;;;;;0.70;0.60;;;7.50;99.90;;;;;;5057841;28;20449;-82
2023/12/30 02:46:30;;;;;;;0.60;0.50;;;7.50;99.90;;;;;;5056959;28;20445;-82
2023/12/30 02:48:57;;;;;;;1.07;0.60;;;7.50;99.90;;;;;;5056483;28;21005;-81
2023/12/30 02:51:25;;;;;;;0.70;0.50;;;7.50;99.90;;;;;;5056968;28;21016;-82
2023/12/30 02:53:52;;;;;;;0.50;0.50;;;7.50;99.90;;;;;;5057328;28;20448;-82
2023/12/30 02:56:20;;;;;;;1.27;0.50;;;7.50;99.90;;;;;;5057103;28;20446;-82
2023/12/30 02:58:50;;;;;;;1.00;0.90;;;7.50;99.90;;;;;;5057049;28;20462;-82
2023/12/30 03:01:17;;;;;;;0.53;0.50;;;7.50;99.90;;;;;;5057359;28;20515;-80
2023/12/30 03:03:43;;;;;;;0.50;0.50;;;7.50;99.90;;;;;;5057041;28;20450;-82
2023/12/30 03:06:13;;;;;;;0.50;0.40;;;7.40;99.90;;;;;;5056746;28;21003;-82
2023/12/30 03:08:40;;;;;;;0.80;0.80;;;7.40;99.90;;;;;;5065266;28;20485;-82
2023/12/30 03:11:09;;;;;;;0.77;0.50;;;7.40;99.90;;;;;;5058924;28;20448;-81
2023/12/30 03:13:35;;;;;;;2.00;0.60;;;7.50;99.90;;;;;;5058562;28;20476;-81
2023/12/30 03:16:04;;;;;;;0.53;0.50;;;7.50;99.90;;;;;;5058217;28;20442;-82
2023/12/30 03:18:31;;;;;;;0.40;0.40;;;7.40;99.90;;;;;;5063218;28;20470;-81
2023/12/30 03:20:58;;;;;;;0.77;0.77;;;7.30;99.90;;;;;;5064440;28;20448;-81
2023/12/30 03:23:24;;;;;;;2.30;0.80;;;7.30;99.90;;;;;;5064709;28;20446;-80
2023/12/30 03:25:52;;;;;;;1.00;0.80;;;7.30;99.90;;;;;;5060492;28;20966;-81
2023/12/30 03:28:18;;;;;;;0.40;0.40;;;7.30;99.90;;;;;;5059423;28;20472;-81
2023/12/30 03:30:45;;;;;;;0.80;0.60;;;7.30;99.90;;;;;;5057118;28;20478;-81
2023/12/30 03:33:13;;;;;;;0.40;0.40;;;7.30;99.90;;;;;;5056221;28;20445;-81
2023/12/30 03:35:40;;;;;;;0.93;0.60;;;7.30;99.90;;;;;;5056293;28;20446;-82
2023/12/30 03:38:07;;;;;;;0.50;0.50;;;7.30;99.90;;;;;;5056591;28;20488;-82
2023/12/30 03:40:33;;;;;;;1.23;0.50;;;7.30;99.90;;;;;;5056510;28;20449;-82
2023/12/30 03:43:01;;;;;;;0.97;0.57;;;7.30;99.90;;;;;;5056468;28;20442;-82
2023/12/30 03:45:27;;;;;;;0.40;0.40;;;7.30;99.90;;;;;;5056655;28;20437;-82
2023/12/30 03:47:54;;;;;;;0.50;0.50;;;7.40;99.90;;;;;;5056295;28;20838;-82
2023/12/30 03:50:22;;;;;;;1.13;1.03;;;7.40;99.90;;;;;;5056439;28;20485;-82
2023/12/30 03:52:49;;;;;;;0.87;0.60;;;7.40;99.90;;;;;;5055910;28;20441;-82
2023/12/30 03:55:16;;;;;;;0.50;0.50;;;7.40;99.90;;;;;;5056506;28;20942;-82
2023/12/30 03:57:43;;;;;;;2.13;0.40;;;7.50;99.90;;;;;;5058120;28;20465;-82
2023/12/30 04:00:10;;;;;;;0.60;0.60;;;7.50;99.90;;;;;;5058008;28;20787;-82
2023/12/30 04:02:37;;;;;;;0.60;0.47;;;7.50;99.90;;;;;;5057505;28;20961;-82
2023/12/30 04:05:04;;;;;;;0.30;0.30;;;7.50;99.90;;;;;;5057710;28;20979;-81
2023/12/30 04:07:33;;;;;;;0.93;0.30;;;7.50;99.90;;;;;;5058910;28;20473;-82
2023/12/30 04:09:59;;;;;;;0.60;0.53;;;7.50;99.90;;;;;;5058635;28;20483;-82
2023/12/30 04:12:26;;;;;;;0.40;0.40;;;7.50;99.90;;;;;;5058749;28;20457;-82
2023/12/30 04:14:53;;;;;;;0.83;0.40;;;7.50;99.90;;;;;;5058410;28;20446;-82
2023/12/30 04:17:19;;;;;;;1.80;0.40;;;7.50;99.90;;;;;;5058004;28;20830;-82
2023/12/30 04:19:46;;;;;;;0.80;0.50;;;7.50;99.90;;;;;;5058823;28;20441;-82
2023/12/30 04:22:13;;;;;;;0.80;0.40;;;7.40;99.90;;;;;;5058091;28;20446;-82
2023/12/30 04:24:41;;;;;;;4.00;0.60;;;7.40;99.90;;;;;;5058132;28;20813;-82
2023/12/30 04:27:08;;;;;;;0.50;0.50;;;7.40;99.90;;;;;;5057510;28;20450;-82
2023/12/30 04:29:34;;;;;;;0.50;0.40;;;7.40;99.90;;;;;;5057704;28;20484;-82
2023/12/30 04:32:01;;;;;;;0.40;0.40;;;7.30;99.90;;;;;;5057825;28;20457;-82
2023/12/30 04:34:28;;;;;;;2.13;0.50;;;7.40;99.90;;;;;;5058516;28;20457;-81
2023/12/30 04:36:54;;;;;;;0.40;0.40;;;7.40;99.90;;;;;;5057827;28;20449;-81
2023/12/30 04:39:21;;;;;;;0.50;0.50;;;7.40;99.90;;;;;;5057785;28;20441;-82
2023/12/30 04:41:49;;;;;;;1.63;0.50;;;7.40;99.90;;;;;;5057552;28;20446;-82
2023/12/30 04:44:16;;;;;;;0.50;0.30;;;7.40;99.90;;;;;;5058601;28;20445;-81
2023/12/30 04:46:43;;;;;;;0.30;0.30;;;7.30;99.90;;;;;;5058433;28;20443;-81
2023/12/30 04:49:11;;;;;;;0.43;0.30;;;7.30;99.90;;;;;;5057793;28;20465;-82
2023/12/30 04:51:37;;;;;;;0.40;0.40;;;7.30;99.90;;;;;;5057840;28;20955;-82
2023/12/30 04:54:05;;;;;;;0.40;0.40;;;7.30;99.90;;;;;;5058382;28;20445;-82
2023/12/30 04:56:31;;;;;;;1.00;0.70;;;7.30;99.90;;;;;;5057541;28;20442;-82
2023/12/30 04:58:59;;;;;;;0.47;0.43;;;7.20;99.90;;;;;;5057287;28;20466;-82
2023/12/30 05:01:26;;;;;;;0.50;0.50;;;7.20;99.90;;;;;;5057753;28;20446;-82
2023/12/30 05:03:54;;;;;;;0.50;0.50;;;7.20;99.90;;;;;;5060613;28;20438;-82
2023/12/30 05:06:22;;;;;;;0.47;0.47;;;7.20;99.90;;;;;;5062023;28;20451;-81
2023/12/30 05:08:49;;;;;;;0.40;0.40;;;7.10;99.90;;;;;;5060922;28;20535;-82
2023/12/30 05:11:15;;;;;;;0.60;0.30;;;7.20;99.90;;;;;;5059886;28;20493;-82
2023/12/30 05:13:43;;;;;;;0.50;0.30;;;7.10;99.90;;;;;;5059184;28;20533;-81
2023/12/30 05:16:11;;;;;;;2.00;0.40;;;7.20;99.90;;;;;;5059466;28;20450;-81
2023/12/30 05:18:38;;;;;;;0.60;0.43;;;7.10;99.90;;;;;;5063002;28;20458;-82
2023/12/30 05:21:05;;;;;;;0.50;0.40;;;7.10;99.90;;;;;;5056603;28;20433;-82
2023/12/30 05:23:33;;;;;;;0.30;0.30;;;7.20;99.90;;;;;;5056359;28;20442;-82
2023/12/30 05:26:00;;;;;;;1.27;0.40;;;7.10;99.90;;;;;;5055862;28;21012;-82
2023/12/30 05:28:27;;;;;;;0.37;0.30;;;7.10;99.90;;;;;;5056504;28;20470;-82
2023/12/30 05:30:53;;;;;;;0.60;0.40;;;7.10;99.90;;;;;;5056749;28;20477;-81
2023/12/30 05:33:21;;;;;;;0.40;0.30;;;7.10;99.90;;;;;;5057112;28;20445;-81
2023/12/30 05:35:48;;;;;;;0.30;0.30;;;7.10;99.90;;;;;;5057756;28;20458;-81
2023/12/30 05:38:15;;;;;;;0.43;0.43;;;7.10;99.90;;;;;;5057487;28;21017;-82
2023/12/30 05:40:42;;;;;;;2.80;0.43;;;7.10;99.90;;;;;;5060251;28;20442;-82
2023/12/30 05:43:09;;;;;;;0.40;0.40;;;7.10;99.90;;;;;;5058131;28;20449;-81
2023/12/30 05:45:35;;;;;;;0.40;0.40;;;7.10;99.90;;;;;;5058317;28;20446;-81
2023/12/30 05:48:02;;;;;;;0.40;0.30;;;7.00;99.90;;;;;;5057935;28;20472;-81
2023/12/30 05:50:30;;;;;;;0.50;0.30;;;7.10;99.90;;;;;;5057984;28;20482;-82
2023/12/30 05:52:57;;;;;;;0.40;0.40;;;7.10;99.90;;;;;;5057947;28;20449;-82
2023/12/30 05:55:24;;;;;;;1.47;0.50;;;7.10;99.90;;;;;;5057716;28;20449;-81
2023/12/30 05:57:51;;;;;;;0.30;0.30;;;7.10;99.90;;;;;;5056701;28;20462;-82
2023/12/30 06:00:19;;;;;;;0.40;0.40;;;7.20;99.90;;;;;;5060366;28;20438;-82
2023/12/30 06:02:48;;;;;;;4.43;0.63;;;7.30;99.90;;;;;;5059372;28;20445;-82
2023/12/30 06:05:15;;;;;;;0.40;0.30;;;7.20;99.90;;;;;;5059920;28;20818;-82
2023/12/30 06:07:43;;;;;;;1.03;0.33;;;7.30;99.90;;;;;;5059792;28;20468;-82
2023/12/30 06:10:10;;;;;;;1.90;0.67;;;7.30;99.90;;;;;;5059943;28;20810;-82
2023/12/30 06:12:36;;;;;;;0.40;0.30;;;7.20;99.90;;;;;;5060717;28;20448;-82
2023/12/30 06:15:04;;;;;;;0.50;0.30;;;7.30;99.90;;;;;;5060710;28;20449;-82
2023/12/30 06:17:30;;;;;;;2.33;0.57;;;7.30;99.90;;;;;;5059776;28;20461;-82
2023/12/30 06:19:57;;;;;;;0.40;0.30;;;7.30;99.90;;;;;;5059766;28;20449;-82
2023/12/30 06:22:24;;;;;;;0.40;0.30;;;7.30;99.90;;;;;;5057646;28;20453;-82
2023/12/30 06:24:52;;;;;;;0.40;0.40;;;7.30;99.90;;;;;;5057174;28;20452;-82
2023/12/30 06:27:20;;;;;;;0.40;0.40;;;7.30;99.90;;;;;;5057253;28;20501;-82
2023/12/30 06:29:47;;;;;;;0.93;0.40;;;7.20;99.90;;;;;;5057064;28;20475;-81
2023/12/30 06:32:14;;;;;;;0.40;0.33;;;7.20;99.90;;;;;;5056863;28;20453;-82
2023/12/30 06:34:40;;;;;;;0.60;0.40;;;7.30;99.90;;;;;;5057012;28;20445;-82
2023/12/30 06:37:07;;;;;;;0.50;0.50;;;7.20;99.90;;;;;;5056659;28;20445;-82
2023/12/30 06:39:34;;;;;;;0.60;0.50;;;7.20;99.90;;;;;;5056995;28;20470;-82
2023/12/30 06:42:02;;;;;;;0.30;0.30;;;7.20;99.90;;;;;;5056485;28;20950;-83
2023/12/30 06:44:29;;;;;;;0.60;0.47;;;7.30;99.90;;;;;;5056787;28;20444;-81
2023/12/30 06:46:55;;;;;;;0.40;0.30;;;7.30;99.90;;;;;;5056513;28;20947;-81
2023/12/30 06:49:22;;;;;;;0.50;0.50;;;7.30;99.90;;;;;;5057090;28;20446;-81
2023/12/30 06:51:49;;;;;;;1.43;0.50;;;7.30;99.90;;;;;;5057032;28;20484;-82
2023/12/30 06:54:15;;;;;;;0.50;0.50;;;7.30;99.90;;;;;;5056639;28;20449;-82
2023/12/30 06:56:43;;;;;;;0.50;0.40;;;7.30;99.90;;;;;;5056650;28;20449;-83
2023/12/30 06:59:12;;;;;;;0.80;0.40;;;7.30;99.90;;;;;;5056657;28;20474;-82
2023/12/30 07:01:40;;;;;;;0.43;0.43;;;7.30;99.90;;;;;;5056633;28;20442;-81
2023/12/30 07:04:06;;;;;;;0.60;0.40;;;7.30;99.90;;;;;;5056587;28;20850;-82
2023/12/30 07:06:33;;;;;;;5.30;0.50;;;7.30;99.90;;;;;;5056648;28;20457;-81
2023/12/30 07:09:00;;;;;;;0.40;0.37;;;7.30;99.90;;;;;;5056183;28;20481;-81
2023/12/30 07:11:27;;;;;;;0.60;0.50;;;7.30;99.90;;;;;;5055700;28;21016;-82
2023/12/30 07:13:53;;;;;;;0.40;0.40;;;7.20;99.90;;;;;;5056520;28;20453;-82
2023/12/30 07:16:21;;;;;;;0.50;0.40;;;7.20;99.90;;;;;;5056539;28;20807;-81
2023/12/30 07:18:48;;;;;;;0.90;0.60;;;7.10;99.90;;;;;;5056482;28;20465;-81
2023/12/30 07:21:15;;;;;;;2.53;0.50;;;7.10;99.90;;;;;;5056395;28;20453;-81
2023/12/30 07:23:41;;;;;;;0.70;0.50;;;7.10;99.90;;;;;;5056560;28;20441;-82
2023/12/30 07:26:08;;;;;;;0.50;0.40;;;7.10;99.90;;;;;;5056483;28;20421;-81
2023/12/30 07:28:35;;;;;;;0.40;0.30;;;7.10;99.90;;;;;;5063228;28;20840;-81
2023/12/30 07:31:02;;;;;;;0.43;0.40;;;7.20;99.90;;;;;;5055753;28;21111;-81
2023/12/30 07:33:30;;;;;;;0.50;0.50;;;7.20;99.90;;;;;;5055882;28;20449;-81
2023/12/30 07:35:57;;;;;;;0.40;0.40;;;7.30;99.90;;;;;;5055935;28;20815;-81
2023/12/30 07:38:24;;;;;;;0.40;0.40;;;7.30;99.90;;;;;;5055642;28;20488;-82
2023/12/30 07:40:50;;;;;;;3.00;0.50;;;7.40;99.90;;;;;;5056216;28;20442;-82
2023/12/30 07:43:17;;;;;;;0.43;0.40;;;7.40;99.90;;;;;;5058815;28;20441;-82
2023/12/30 07:45:44;;;;;;;0.90;0.60;;;7.40;99.90;;;;;;5055319;28;20448;-82
2023/12/30 07:48:11;;;;;;;0.70;0.40;;;7.40;99.90;;;;;;5055451;28;20549;-82
2023/12/30 07:50:39;;;;;;;0.80;0.60;;;7.50;99.90;;;;;;5055470;28;20477;-82
2023/12/30 07:53:05;;;;;;;1.63;0.50;;;7.50;99.90;;;;;;5055515;28;20807;-83
2023/12/30 07:55:32;;;;;;;1.00;0.47;;;7.50;99.90;;;;;;5055524;28;20802;-82
2023/12/30 07:57:59;;;;;;;1.00;0.50;;;7.60;99.90;;;;;;5055485;28;20466;-82
2023/12/30 08:00:25;;;;;;;0.87;0.80;;;7.60;99.90;;;;;;5058124;28;20444;-82
2023/12/30 08:02:52;;;;;;;0.57;0.50;;;7.70;99.90;;;;;;5057229;28;20818;-82
2023/12/30 08:05:19;;;;;;;0.60;0.47;;;7.60;99.90;;;;;;5055786;28;20480;-81
2023/12/30 08:07:47;;;;;;;0.43;0.40;;;7.70;99.90;;;;;;5057059;28;20465;-81
2023/12/30 08:10:14;;;;;;;0.70;0.43;;;7.80;99.90;;;;;;5056683;28;20426;-83
2023/12/30 08:12:41;;;;;;;0.60;0.50;;;7.90;99.90;;;;;;5055162;28;20525;-82
2023/12/30 08:15:10;;;;;;;0.40;0.40;;;7.90;99.90;;;;;;5057076;28;20434;-82
2023/12/30 08:17:37;;;;;;;0.30;0.30;;;7.90;99.90;;;;;;5058067;28;20466;-82
2023/12/30 08:20:05;;;;;;;0.90;0.53;;;7.90;99.90;;;;;;5056931;28;20449;-82
2023/12/30 08:22:32;;;;;;;0.90;0.60;;;7.90;99.90;;;;;;5061516;28;20446;-82
2023/12/30 08:25:00;;;;;;;0.53;0.50;;;8.10;99.90;;;;;;5056758;28;20477;-82
2023/12/30 08:27:27;;;;;;;0.43;0.40;;;8.20;99.90;;;;;;5055983;28;20476;-83
2023/12/30 08:29:53;;;;;;;0.40;0.40;;;8.30;99.90;;;;;;5055440;28;20939;-82
2023/12/30 08:32:20;;;;;;;0.40;0.40;;;8.50;99.90;;;;;;5055521;28;20835;-83
2023/12/30 08:34:47;;;;;;;0.30;0.30;;;8.60;99.90;;;;;;5055141;28;20446;-82
2023/12/30 08:37:14;;;;;;;0.50;0.40;;;8.70;99.90;;;;;;5055142;28;20466;-83
2023/12/30 08:39:41;;;;;;;0.60;0.60;;;8.70;99.90;;;;;;5055059;28;20457;-82
2023/12/30 08:42:09;;;;;;;0.40;0.40;;;8.60;99.90;;;;;;5054872;28;20535;-82
2023/12/30 08:44:40;;;;;;;0.40;0.40;;;8.60;99.90;;;;;;5055191;28;20450;-82
2023/12/30 08:47:07;;;;;;;0.40;0.40;;;8.50;99.90;;;;;;5055892;28;20487;-82
2023/12/30 08:49:34;;;;;;;1.30;0.33;;;8.50;99.90;;;;;;5055549;28;20817;-81
2023/12/30 08:52:00;;;;;;;0.50;0.40;;;8.50;99.90;;;;;;5055966;28;20481;-82
2023/12/30 08:54:27;;;;;;;0.33;0.33;;;8.60;99.90;;;;;;5056305;28;20441;-82
2023/12/30 08:56:54;;;;;;;1.57;0.50;;;8.60;99.90;;;;;;5055075;28;20490;-82
2023/12/30 08:59:24;;;;;;;1.03;0.50;;;8.70;99.90;;;;;;5057130;28;20458;-81
2023/12/30 09:01:50;;;;;;;0.40;0.40;;;8.70;99.90;;;;;;5056624;28;20442;-82
2023/12/30 09:04:17;;;;;;;0.83;0.50;;;8.70;99.90;;;;;;5056883;28;20837;-82
2023/12/30 09:06:44;;;;;;;0.50;0.50;;;8.70;99.90;;;;;;5056202;28;20441;-82
2023/12/30 09:09:11;;;;;;;0.50;0.40;;;8.80;99.90;;;;;;5055726;28;20482;-82
2023/12/30 09:11:38;;;;;;;0.70;0.57;;;8.90;99.90;;;;;;5055261;28;20478;-80
2023/12/30 09:14:06;;;;;;;0.53;0.37;;;9.10;99.90;;;;;;5054912;28;20449;-80
2023/12/30 09:16:34;;;;;;;0.30;0.30;;;9.30;99.90;;;;;;5055257;28;20876;-80
2023/12/30 09:19:01;;;;;;;0.70;0.47;;;9.40;99.90;;;;;;5054970;28;20572;-81
2023/12/30 09:21:29;;;;;;;0.60;0.50;;;9.50;99.90;;;;;;5055698;28;20456;-80
2023/12/30 09:23:56;;;;;;;0.50;0.50;;;9.60;99.90;;;;;;5055757;28;20473;-81
2023/12/30 09:26:22;;;;;;;0.50;0.50;;;9.60;99.90;;;;;;5055133;28;20453;-80
2023/12/30 09:28:49;;;;;;;0.50;0.43;;;9.60;99.90;;;;;;5057304;28;20462;-80
2023/12/30 09:31:17;;;;;;;3.33;0.50;;;9.50;99.90;;;;;;5057343;28;20477;-80
2023/12/30 09:33:45;;;;;;;0.90;0.50;;;9.40;99.90;;;;;;5056712;28;20503;-80
2023/12/30 09:36:11;;;;;;;0.50;0.50;;;9.40;99.90;;;;;;5062835;28;20452;-80
2023/12/30 09:38:38;;;;;;;0.40;0.30;;;9.40;99.90;;;;;;5057456;28;20466;-81
2023/12/30 09:41:06;;;;;;;0.40;0.30;;;9.50;99.90;;;;;;5054388;28;20813;-81
2023/12/30 09:43:34;;;;;;;0.73;0.60;;;9.50;99.90;;;;;;5054951;28;20484;-80
2023/12/30 09:46:02;;;;;;;1.03;0.47;;;9.50;99.90;;;;;;5055193;28;20457;-81
2023/12/30 09:48:28;;;;;;;0.50;0.40;;;9.60;99.90;;;;;;5056546;28;20462;-81
2023/12/30 09:50:57;;;;;;;0.40;0.40;;;9.80;99.90;;;;;;5055870;28;20524;-81
2023/12/30 09:53:25;;;;;;;0.40;0.30;;;10.30;99.90;;;;;;5055954;28;20441;-81
2023/12/30 09:55:52;;;;;;;0.40;0.30;;;10.80;99.90;;;;;;5056167;28;20540;-81
2023/12/30 09:58:20;;;;;;;0.40;0.30;;;11.10;99.90;;;;;;5056118;28;20469;-81
2023/12/30 10:00:47;;;;;;;0.40;0.30;;;11.10;99.90;;;;;;5056730;28;20820;-81
2023/12/30 10:03:15;;;;;;;2.10;0.40;;;11.00;99.90;;;;;;5055894;28;20446;-81
2023/12/30 10:05:42;;;;;;;0.40;0.40;;;10.90;99.90;;;;;;5053982;28;20449;-81
2023/12/30 10:08:11;;;;;;;0.50;0.47;;;10.80;99.90;;;;;;5055231;28;20975;-80
2023/12/30 10:10:43;;;;;;;0.60;0.30;;;10.60;99.90;;;;;;5058526;28;20446;-81
2023/12/30 10:13:09;;;;;;;0.30;0.30;;;11.20;99.90;;;;;;5053999;28;20486;-81
2023/12/30 10:15:36;;;;;;;0.60;0.40;;;12.00;99.90;;;;;;5054345;28;20448;-81
2023/12/30 10:18:04;;;;;;;0.43;0.40;;;12.60;99.90;;;;;;5054368;28;20846;-81
2023/12/30 10:20:31;;;;;;;0.40;0.30;;;12.70;99.90;;;;;;5053837;28;20442;-81
2023/12/30 10:22:58;;;;;;;0.30;0.30;;;12.40;99.90;;;;;;5053958;28;20437;-81
2023/12/30 10:25:26;;;;;;;0.70;0.50;;;12.00;99.90;;;;;;5053963;28;20445;-81
2023/12/30 10:27:52;;;;;;;0.73;0.40;;;11.90;99.90;;;;;;5055338;28;20461;-81
2023/12/30 10:30:19;;;;;;;0.40;0.40;;;11.70;99.90;;;;;;5055037;28;20437;-81
2023/12/30 10:32:47;;;;;;;0.40;0.40;;;11.60;99.90;;;;;;5054191;28;20599;-81
2023/12/30 10:35:14;;;;;;;0.40;0.33;;;11.60;99.90;;;;;;5054055;28;20496;-81
2023/12/30 10:37:42;;;;;;;0.60;0.30;;;11.60;99.90;;;;;;5053675;28;20978;-81
2023/12/30 10:40:10;;;;;;;0.40;0.40;;;11.70;99.90;;;;;;5054243;28;20477;-81
2023/12/30 10:42:40;;;;;;;0.40;0.40;;;11.60;99.90;;;;;;5054115;28;20449;-81
2023/12/30 10:45:08;;;;;;;0.40;0.40;;;11.50;99.90;;;;;;5057929;28;20430;-80
2023/12/30 10:47:39;;;;;;;0.40;0.30;;;11.40;99.90;;;;;;5063768;28;20466;-81
2023/12/30 10:50:09;;;;;;;0.40;0.40;;;11.30;99.90;;;;;;5064176;28;20437;-81
2023/12/30 10:52:41;;;;;;;0.67;0.30;;;11.20;99.90;;;;;;5063384;28;21041;-81
2023/12/30 10:55:10;;;;;;;1.27;0.53;;;11.10;99.90;;;;;;5065040;28;20426;-81
2023/12/30 10:57:41;;;;;;;1.90;0.60;;;11.00;99.90;;;;;;5064468;28;20472;-81
2023/12/30 11:00:10;;;;;;;0.53;0.40;;;10.80;99.90;;;;;;5063052;28;20426;-81
2023/12/30 11:02:37;;;;;;;1.10;0.33;;;10.70;99.90;;;;;;5061978;28;20497;-81
2023/12/30 11:05:08;;;;;;;0.93;0.30;;;10.70;99.90;;;;;;5064009;28;20450;-81
2023/12/30 11:07:35;;;;;;;0.40;0.40;;;10.60;99.90;;;;;;5060894;28;20993;-81
2023/12/30 11:10:16;;;;;;;0.40;0.33;;;10.60;99.90;;;;;;5061757;28;20779;-81
2023/12/30 11:12:44;;;;;;;0.30;0.30;;;10.50;99.90;;;;;;5061286;28;20470;-81
2023/12/30 11:15:23;;;;;;;0.30;0.30;;;10.50;99.90;;;;;;5059621;28;20501;-82
2023/12/30 11:17:50;;;;;;;0.30;0.30;;;10.40;99.90;;;;;;5061357;28;20472;-81
2023/12/30 11:20:25;;;;;;;0.63;0.60;;;10.40;99.90;;;;;;5064541;28;20444;-80
2023/12/30 11:22:53;;;;;;;1.13;0.80;;;10.40;99.90;;;;;;5066001;28;20432;-81
2023/12/30 11:25:20;;;;;;;0.87;0.50;;;10.40;99.90;;;;;;5065318;28;20446;-81
2023/12/30 11:27:54;;;;;;;0.30;0.30;;;10.40;99.90;;;;;;5066001;28;20492;-80
2023/12/30 11:30:27;;;;;;;0.53;0.40;;;10.30;99.90;;;;;;5065862;28;20452;-81
2023/12/30 11:32:55;;;;;;;1.63;0.30;;;10.30;99.90;;;;;;5065117;28;20466;-81
2023/12/30 11:35:22;;;;;;;1.70;0.40;;;10.30;99.90;;;;;;5065214;28;20468;-81
2023/12/30 11:37:53;;;;;;;0.47;0.40;;;10.30;99.90;;;;;;5065075;28;20474;-80
2023/12/30 11:40:21;;;;;;;0.50;0.33;;;10.20;99.90;;;;;;5064843;28;20441;-81
2023/12/30 11:42:48;;;;;;;0.40;0.40;;;10.20;99.90;;;;;;5064918;28;20492;-80
2023/12/30 11:45:16;;;;;;;0.40;0.30;;;10.20;99.90;;;;;;5065676;28;20548;-81
2023/12/30 11:47:46;;;;;;;0.30;0.30;;;10.10;99.90;;;;;;5065617;28;20472;-80
2023/12/30 11:50:13;;;;;;;1.27;0.30;;;10.10;99.90;;;;;;5069747;28;20935;-80
2023/12/30 11:52:47;;;;;;;1.17;0.60;;;10.00;99.90;;;;;;5067722;28;20473;-81
2023/12/30 11:55:14;;;;;;;0.40;0.30;;;10.00;99.90;;;;;;5058053;28;20518;-81
2023/12/30 11:57:41;;;;;;;0.70;0.30;;;10.00;99.90;;;;;;5057070;28;20548;-81
2023/12/30 12:00:10;;;;;;;0.40;0.40;;;9.90;99.90;;;;;;5056302;28;20442;-81
2023/12/30 12:02:38;;;;;;;1.33;0.40;;;10.00;99.90;;;;;;5056669;28;20446;-81
2023/12/30 12:05:06;;;;;;;0.30;0.30;;;9.90;99.90;;;;;;5058677;28;20445;-82
2023/12/30 12:07:33;;;;;;;1.07;0.50;;;9.90;99.90;;;;;;5058104;28;20470;-81
2023/12/30 12:10:00;;;;;;;0.50;0.40;;;9.90;99.90;;;;;;5060856;28;20521;-82
2023/12/30 12:12:36;;;;;;;0.40;0.30;;;9.90;99.90;;;;;;5059732;28;20910;-81
2023/12/30 12:15:04;;;;;;;0.97;0.40;;;10.00;99.90;;;;;;5061831;28;20422;-81
2023/12/30 12:17:31;;;;;;;0.40;0.30;;;10.00;99.90;;;;;;5059642;28;20470;-80
2023/12/30 12:19:59;;;;;;;0.30;0.30;;;10.10;99.90;;;;;;5061103;28;20438;-81
2023/12/30 12:22:26;;;;;;;0.40;0.33;;;10.10;99.90;;;;;;5060229;28;20453;-81
2023/12/30 12:24:52;;;;;;;0.90;0.37;;;10.20;99.90;;;;;;5060279;28;20456;-81
2023/12/30 12:27:20;;;;;;;0.43;0.40;;;10.10;99.90;;;;;;5060580;28;20484;-80
2023/12/30 12:29:49;;;;;;;0.60;0.50;;;10.10;99.90;;;;;;5060145;28;20866;-81
2023/12/30 12:32:20;;;;;;;0.30;0.30;;;10.10;99.90;;;;;;5060646;28;20482;-80
2023/12/30 12:34:47;;;;;;;7.73;0.40;;;10.10;99.90;;;;;;5061462;28;20890;-81
2023/12/30 12:37:15;;;;;;;0.80;0.40;;;10.00;99.90;;;;;;5060385;28;20465;-80
2023/12/30 12:39:42;;;;;;;0.50;0.30;;;10.00;99.90;;;;;;5060300;28;20823;-80
2023/12/30 12:42:09;;;;;;;0.30;0.30;;;9.90;99.90;;;;;;5059752;28;20883;-81
2023/12/30 12:44:35;;;;;;;1.13;0.30;;;9.90;99.90;;;;;;5059662;28;20438;-81
2023/12/30 12:47:02;;;;;;;0.40;0.30;;;9.90;99.90;;;;;;5060460;28;20461;-83
2023/12/30 12:49:29;;;;;;;0.50;0.30;;;9.80;99.90;;;;;;5061110;28;20410;-82
2023/12/30 12:51:56;;;;;;;1.20;0.60;;;9.80;99.90;;;;;;5060934;28;21069;-83
2023/12/30 12:54:24;;;;;;;0.40;0.40;;;9.90;99.90;;;;;;5060844;28;20441;-82
2023/12/30 12:56:51;;;;;;;0.40;0.40;;;10.00;99.90;;;;;;5061759;28;20442;-83